createdAt,value
2022-12-25T00:00:27.918Z,956.54
2022-12-25T00:01:27.892Z,956.59
2022-12-25T00:02:27.942Z,956.57
2022-12-25T00:03:27.968Z,956.60
2022-12-25T00:04:27.793Z,956.64
2022-12-25T00:05:27.780Z,956.68
2022-12-25T00:06:27.765Z,956.65
2022-12-25T00:07:27.744Z,956.59
2022-12-25T00:08:27.772Z,956.62
2022-12-25T00:09:27.703Z,956.63
2022-12-25T00:10:27.717Z,956.59
2022-12-25T00:11:27.692Z,956.59
2022-12-25T00:12:27.690Z,956.57
2022-12-25T00:13:27.663Z,956.59
2022-12-25T00:14:27.692Z,956.56
2022-12-25T00:15:27.648Z,956.59
2022-12-25T00:16:27.785Z,956.55
2022-12-25T00:17:27.613Z,956.55
2022-12-25T00:18:27.596Z,956.55
2022-12-25T00:19:27.579Z,956.55
2022-12-25T00:20:27.617Z,956.55
2022-12-25T00:21:27.548Z,956.48
2022-12-25T00:22:27.548Z,956.47
2022-12-25T00:23:27.701Z,956.47
2022-12-25T00:24:27.535Z,956.47
2022-12-25T00:25:27.586Z,956.44
2022-12-25T00:26:27.505Z,956.45
2022-12-25T00:27:27.516Z,956.51
2022-12-25T00:28:27.497Z,956.50
2022-12-25T00:29:27.494Z,956.52
2022-12-25T00:30:27.442Z,956.52
2022-12-25T00:31:27.428Z,956.53
2022-12-25T00:32:27.420Z,956.53
2022-12-25T00:33:27.385Z,956.53
2022-12-25T00:34:27.413Z,956.51
2022-12-25T00:35:27.371Z,956.52
2022-12-25T00:36:27.362Z,956.47
2022-12-25T00:37:27.343Z,956.46
2022-12-25T00:38:27.348Z,956.50
2022-12-25T00:39:27.336Z,956.50
2022-12-25T00:40:27.335Z,956.46
2022-12-25T00:41:27.290Z,956.48
2022-12-25T00:42:27.292Z,956.46
2022-12-25T00:43:27.296Z,956.44
2022-12-25T00:44:27.267Z,956.40
2022-12-25T00:45:27.349Z,956.41
2022-12-25T00:46:27.333Z,956.42
2022-12-25T00:47:27.211Z,956.45
2022-12-25T00:48:27.204Z,956.40
2022-12-25T00:49:27.175Z,956.41
2022-12-25T00:50:27.178Z,956.38
2022-12-25T00:51:27.206Z,956.37
2022-12-25T00:52:27.167Z,956.41
2022-12-25T00:53:27.159Z,956.41
2022-12-25T00:54:27.144Z,956.38
2022-12-25T00:55:27.096Z,956.38
2022-12-25T00:56:27.173Z,956.37
2022-12-25T00:57:27.128Z,956.30
2022-12-25T00:58:27.079Z,956.27
2022-12-25T00:59:27.062Z,956.27
2022-12-25T01:00:27.038Z,956.30
2022-12-25T01:01:29.798Z,956.25
2022-12-25T01:02:27.282Z,956.29
2022-12-25T01:03:27.122Z,956.33
2022-12-25T01:04:26.992Z,956.34
2022-12-25T01:05:26.988Z,956.42
2022-12-25T01:06:26.990Z,956.39
2022-12-25T01:07:26.970Z,956.39
2022-12-25T01:08:26.965Z,956.36
2022-12-25T01:09:26.932Z,956.38
2022-12-25T01:10:26.915Z,956.39
2022-12-25T01:11:26.942Z,956.34
2022-12-25T01:12:26.902Z,956.39
2022-12-25T01:13:26.872Z,956.40
2022-12-25T01:14:26.844Z,956.40
2022-12-25T01:15:26.870Z,956.36
2022-12-25T01:16:26.913Z,956.38
2022-12-25T01:17:26.818Z,956.37
2022-12-25T01:18:26.830Z,956.38
2022-12-25T01:19:26.823Z,956.40
2022-12-25T01:20:26.770Z,956.38
2022-12-25T01:21:26.777Z,956.47
2022-12-25T01:22:26.748Z,956.51
2022-12-25T01:23:26.751Z,956.46
2022-12-25T01:24:26.745Z,956.50
2022-12-25T01:25:26.713Z,956.52
2022-12-25T01:26:26.691Z,956.39
2022-12-25T01:27:26.708Z,956.45
2022-12-25T01:28:26.672Z,956.40
2022-12-25T01:29:26.656Z,956.43
2022-12-25T01:30:26.646Z,956.46
2022-12-25T01:31:26.760Z,956.50
2022-12-25T01:32:26.620Z,956.49
2022-12-25T01:33:26.604Z,956.51
2022-12-25T01:34:26.584Z,956.59
2022-12-25T01:35:26.603Z,956.60
2022-12-25T01:36:26.562Z,956.64
2022-12-25T01:37:26.566Z,956.62
2022-12-25T01:38:26.574Z,956.63
2022-12-25T01:39:26.519Z,956.60
2022-12-25T01:40:26.521Z,956.61
2022-12-25T01:41:26.513Z,956.61
2022-12-25T01:42:26.483Z,956.62
2022-12-25T01:43:26.479Z,956.56
2022-12-25T01:44:26.468Z,956.54
2022-12-25T01:45:26.470Z,956.49
2022-12-25T01:46:26.422Z,956.48
2022-12-25T01:47:26.415Z,956.43
2022-12-25T01:48:26.528Z,956.41
2022-12-25T01:49:26.475Z,956.43
2022-12-25T01:50:26.383Z,956.38
2022-12-25T01:51:26.402Z,956.47
2022-12-25T01:52:26.400Z,956.45
2022-12-25T01:53:26.350Z,956.50
2022-12-25T01:54:26.318Z,956.49
2022-12-25T01:55:26.326Z,956.47
2022-12-25T01:56:26.294Z,956.49
2022-12-25T01:57:26.310Z,956.51
2022-12-25T01:58:26.278Z,956.46
2022-12-25T01:59:26.293Z,956.46
2022-12-25T02:00:26.268Z,956.46
2022-12-25T02:01:26.380Z,956.42
2022-12-25T02:02:26.364Z,956.40
2022-12-25T02:03:26.301Z,956.36
2022-12-25T02:06:53.186Z,956.33
2022-12-25T02:06:58.132Z,956.32
2022-12-25T02:07:58.089Z,956.29
2022-12-25T02:08:58.077Z,956.33
2022-12-25T02:09:58.072Z,956.37
2022-12-25T02:10:58.038Z,956.33
2022-12-25T02:11:58.033Z,956.32
2022-12-25T02:12:58.008Z,956.31
2022-12-25T02:13:58.034Z,956.29
2022-12-25T02:15:04.563Z,956.26
2022-12-25T02:15:57.982Z,956.24
2022-12-25T02:16:59.032Z,956.26
2022-12-25T02:17:57.951Z,956.28
2022-12-25T02:18:57.956Z,956.32
2022-12-25T02:19:57.916Z,956.32
2022-12-25T02:20:57.902Z,956.32
2022-12-25T02:21:57.948Z,956.28
2022-12-25T02:22:57.897Z,956.25
2022-12-25T02:23:57.861Z,956.29
2022-12-25T02:24:57.844Z,956.26
2022-12-25T02:25:57.843Z,956.25
2022-12-25T02:26:57.827Z,956.29
2022-12-25T02:27:57.840Z,956.29
2022-12-25T02:28:57.801Z,956.26
2022-12-25T02:29:57.818Z,956.20
2022-12-25T02:30:57.765Z,956.17
2022-12-25T02:31:57.785Z,956.14
2022-12-25T02:32:57.749Z,956.10
2022-12-25T02:33:57.796Z,956.15
2022-12-25T02:34:57.715Z,956.17
2022-12-25T02:35:57.708Z,956.19
2022-12-25T02:36:57.701Z,956.18
2022-12-25T02:37:57.671Z,956.17
2022-12-25T02:38:57.691Z,956.13
2022-12-25T02:39:57.671Z,956.12
2022-12-25T02:40:57.652Z,956.12
2022-12-25T02:41:57.655Z,956.13
2022-12-25T02:42:57.662Z,956.11
2022-12-25T02:43:57.668Z,956.07
2022-12-25T02:44:57.616Z,956.11
2022-12-25T02:45:57.614Z,956.13
2022-12-25T02:46:57.580Z,956.13
2022-12-25T02:47:57.555Z,956.11
2022-12-25T02:48:57.573Z,956.11
2022-12-25T02:49:57.552Z,956.11
2022-12-25T02:50:57.538Z,956.14
2022-12-25T02:51:57.548Z,956.12
2022-12-25T02:52:57.480Z,956.16
2022-12-25T02:53:57.511Z,956.09
2022-12-25T02:54:57.469Z,956.11
2022-12-25T02:55:57.456Z,956.15
2022-12-25T02:56:57.437Z,956.19
2022-12-25T02:57:57.601Z,956.17
2022-12-25T02:58:57.399Z,956.20
2022-12-25T02:59:57.425Z,956.22
2022-12-25T03:00:57.389Z,956.22
2022-12-25T03:01:57.515Z,956.23
2022-12-25T03:02:57.392Z,956.23
2022-12-25T03:03:57.358Z,956.24
2022-12-25T03:04:57.318Z,956.25
2022-12-25T03:05:57.341Z,956.29
2022-12-25T03:06:57.286Z,956.29
2022-12-25T03:07:57.296Z,956.27
2022-12-25T03:08:57.263Z,956.23
2022-12-25T03:09:57.276Z,956.27
2022-12-25T03:10:57.350Z,956.23
2022-12-25T03:11:57.261Z,956.20
2022-12-25T03:12:57.212Z,956.15
2022-12-25T03:13:57.205Z,956.15
2022-12-25T03:14:57.190Z,956.17
2022-12-25T03:15:57.201Z,956.15
2022-12-25T03:16:57.303Z,956.14
2022-12-25T03:17:57.156Z,956.14
2022-12-25T03:18:57.165Z,956.14
2022-12-25T03:19:57.160Z,956.12
2022-12-25T03:20:57.101Z,956.07
2022-12-25T03:21:57.114Z,956.10
2022-12-25T03:22:57.108Z,956.11
2022-12-25T03:23:57.069Z,956.09
2022-12-25T03:24:57.080Z,956.06
2022-12-25T03:25:57.071Z,956.09
2022-12-25T03:26:57.032Z,955.97
2022-12-25T03:27:57.042Z,955.96
2022-12-25T03:28:57.025Z,955.90
2022-12-25T03:29:56.998Z,955.91
2022-12-25T03:30:57.015Z,955.90
2022-12-25T03:31:57.007Z,955.85
2022-12-25T03:32:56.956Z,955.85
2022-12-25T03:33:57.057Z,955.85
2022-12-25T03:34:56.926Z,955.84
2022-12-25T03:35:56.930Z,955.83
2022-12-25T03:36:56.917Z,955.83
2022-12-25T03:37:56.886Z,955.82
2022-12-25T03:38:56.888Z,955.87
2022-12-25T03:39:56.874Z,955.81
2022-12-25T03:40:56.842Z,955.79
2022-12-25T03:41:56.866Z,955.79
2022-12-25T03:42:56.815Z,955.83
2022-12-25T03:43:56.841Z,955.84
2022-12-25T03:44:56.816Z,955.82
2022-12-25T03:45:56.868Z,955.83
2022-12-25T03:46:56.784Z,955.84
2022-12-25T03:47:56.753Z,955.83
2022-12-25T03:48:56.771Z,955.86
2022-12-25T03:49:56.727Z,955.87
2022-12-25T03:50:56.715Z,955.90
2022-12-25T03:51:56.712Z,955.93
2022-12-25T03:52:56.690Z,955.94
2022-12-25T03:53:56.706Z,955.97
2022-12-25T03:54:56.659Z,955.92
2022-12-25T03:55:56.651Z,955.93
2022-12-25T03:56:56.690Z,955.89
2022-12-25T03:57:56.629Z,955.89
2022-12-25T03:58:56.689Z,955.85
2022-12-25T03:59:56.608Z,955.80
2022-12-25T04:00:56.621Z,955.82
2022-12-25T04:01:56.696Z,955.80
2022-12-25T04:02:56.694Z,955.80
2022-12-25T04:03:56.548Z,955.82
2022-12-25T04:04:56.527Z,955.85
2022-12-25T04:05:56.517Z,955.80
2022-12-25T04:06:56.539Z,955.82
2022-12-25T04:07:56.496Z,955.82
2022-12-25T04:08:56.474Z,955.83
2022-12-25T04:09:56.498Z,955.80
2022-12-25T04:10:56.438Z,955.77
2022-12-25T04:12:02.257Z,955.86
2022-12-25T04:12:56.428Z,955.81
2022-12-25T04:13:56.458Z,955.81
2022-12-25T04:14:56.444Z,955.79
2022-12-25T04:15:56.456Z,955.88
2022-12-25T04:16:56.381Z,955.91
2022-12-25T04:17:56.377Z,955.92
2022-12-25T04:18:56.358Z,955.93
2022-12-25T04:19:56.363Z,955.94
2022-12-25T04:20:56.321Z,955.98
2022-12-25T04:21:56.350Z,955.99
2022-12-25T04:22:56.285Z,955.99
2022-12-25T04:23:56.300Z,955.98
2022-12-25T04:24:56.256Z,955.97
2022-12-25T04:25:56.260Z,955.99
2022-12-25T04:26:56.262Z,955.99
2022-12-25T04:27:56.235Z,956.01
2022-12-25T04:28:56.211Z,955.99
2022-12-25T04:29:56.228Z,955.95
2022-12-25T04:30:56.256Z,955.95
2022-12-25T04:31:56.203Z,955.96
2022-12-25T04:32:56.148Z,955.95
2022-12-25T04:33:56.146Z,955.94
2022-12-25T04:34:56.161Z,955.97
2022-12-25T04:35:56.125Z,955.94
2022-12-25T04:36:56.096Z,955.93
2022-12-25T04:37:56.102Z,955.90
2022-12-25T04:38:56.153Z,955.90
2022-12-25T04:39:56.100Z,955.89
2022-12-25T04:40:56.069Z,955.91
2022-12-25T04:41:56.065Z,955.92
2022-12-25T04:42:56.026Z,955.94
2022-12-25T04:43:56.026Z,955.91
2022-12-25T04:44:55.988Z,955.93
2022-12-25T04:45:55.995Z,955.97
2022-12-25T04:46:56.048Z,955.90
2022-12-25T04:47:56.031Z,955.91
2022-12-25T04:48:55.946Z,955.85
2022-12-25T04:49:55.946Z,955.88
2022-12-25T04:50:55.947Z,955.83
2022-12-25T04:51:55.916Z,955.83
2022-12-25T04:52:55.889Z,955.83
2022-12-25T04:53:55.913Z,955.82
2022-12-25T04:54:55.866Z,955.87
2022-12-25T04:55:55.878Z,955.84
2022-12-25T04:56:55.869Z,955.85
2022-12-25T04:57:55.841Z,955.77
2022-12-25T04:58:55.850Z,955.78
2022-12-25T04:59:55.816Z,955.76
2022-12-25T05:00:55.812Z,955.75
2022-12-25T05:01:55.847Z,955.78
2022-12-25T05:02:55.951Z,955.82
2022-12-25T05:03:55.815Z,955.82
2022-12-25T05:04:55.835Z,955.83
2022-12-25T05:05:55.755Z,955.82
2022-12-25T05:06:55.702Z,955.80
2022-12-25T05:07:55.736Z,955.83
2022-12-25T05:08:55.704Z,955.86
2022-12-25T05:09:55.692Z,955.86
2022-12-25T05:10:55.661Z,955.77
2022-12-25T05:11:55.648Z,955.71
2022-12-25T05:12:55.629Z,955.77
2022-12-25T05:13:55.633Z,955.79
2022-12-25T05:14:55.685Z,955.79
2022-12-25T05:15:55.629Z,955.76
2022-12-25T05:16:55.575Z,955.81
2022-12-25T05:17:55.567Z,955.79
2022-12-25T05:18:55.572Z,955.77
2022-12-25T05:19:55.564Z,955.78
2022-12-25T05:20:55.520Z,955.81
2022-12-25T05:21:55.501Z,955.81
2022-12-25T05:22:55.509Z,955.81
2022-12-25T05:23:55.496Z,955.81
2022-12-25T05:24:55.494Z,955.81
2022-12-25T05:25:55.493Z,955.85
2022-12-25T05:26:55.455Z,955.80
2022-12-25T05:27:55.446Z,955.76
2022-12-25T05:28:55.466Z,955.77
2022-12-25T05:29:55.447Z,955.78
2022-12-25T05:30:55.495Z,955.73
2022-12-25T05:31:55.374Z,955.71
2022-12-25T05:32:55.366Z,955.77
2022-12-25T05:33:55.381Z,955.73
2022-12-25T05:34:55.337Z,955.74
2022-12-25T05:35:55.326Z,955.71
2022-12-25T05:36:55.351Z,955.72
2022-12-25T05:37:55.330Z,955.69
2022-12-25T05:38:55.322Z,955.66
2022-12-25T05:39:55.285Z,955.59
2022-12-25T05:40:55.275Z,955.63
2022-12-25T05:41:55.244Z,955.67
2022-12-25T05:42:55.258Z,955.65
2022-12-25T05:43:55.250Z,955.63
2022-12-25T05:44:55.215Z,955.66
2022-12-25T05:45:55.187Z,955.69
2022-12-25T05:46:55.317Z,955.69
2022-12-25T05:47:55.179Z,955.73
2022-12-25T05:48:55.199Z,955.73
2022-12-25T05:49:55.123Z,955.74
2022-12-25T05:50:55.128Z,955.75
2022-12-25T05:51:55.139Z,955.77
2022-12-25T05:52:55.104Z,955.74
2022-12-25T05:53:55.078Z,955.72
2022-12-25T05:54:55.080Z,955.71
2022-12-25T05:55:55.056Z,955.71
2022-12-25T05:56:55.079Z,955.69
2022-12-25T05:57:55.022Z,955.65
2022-12-25T05:58:55.027Z,955.65
2022-12-25T05:59:54.998Z,955.62
2022-12-25T06:00:55.035Z,955.65
2022-12-25T06:01:55.071Z,955.63
2022-12-25T06:02:55.099Z,955.64
2022-12-25T06:03:54.968Z,955.70
2022-12-25T06:04:54.947Z,955.74
2022-12-25T06:05:54.930Z,955.78
2022-12-25T06:06:54.956Z,955.83
2022-12-25T06:07:54.909Z,955.85
2022-12-25T06:08:54.894Z,955.89
2022-12-25T06:09:54.887Z,955.89
2022-12-25T06:10:54.865Z,955.85
2022-12-25T06:11:54.881Z,955.89
2022-12-25T06:12:54.846Z,955.88
2022-12-25T06:13:54.819Z,955.90
2022-12-25T06:14:54.816Z,955.88
2022-12-25T06:15:54.862Z,955.88
2022-12-25T06:16:54.875Z,955.83
2022-12-25T06:17:54.760Z,955.82
2022-12-25T06:18:54.773Z,955.84
2022-12-25T06:19:54.743Z,955.84
2022-12-25T06:20:54.739Z,955.79
2022-12-25T06:21:54.730Z,955.81
2022-12-25T06:22:54.729Z,955.77
2022-12-25T06:23:54.727Z,955.76
2022-12-25T06:24:54.683Z,955.76
2022-12-25T06:25:54.682Z,955.82
2022-12-25T06:26:54.657Z,955.88
2022-12-25T06:27:54.634Z,955.84
2022-12-25T06:28:54.635Z,955.83
2022-12-25T06:29:54.607Z,955.89
2022-12-25T06:30:54.624Z,955.83
2022-12-25T06:31:54.627Z,955.89
2022-12-25T06:32:54.568Z,955.86
2022-12-25T06:33:54.567Z,955.86
2022-12-25T06:34:54.551Z,955.86
2022-12-25T06:35:54.550Z,955.88
2022-12-25T06:36:54.531Z,955.88
2022-12-25T06:37:54.517Z,955.87
2022-12-25T06:38:54.498Z,955.90
2022-12-25T06:39:54.469Z,955.92
2022-12-25T06:40:54.492Z,955.91
2022-12-25T06:41:54.488Z,955.92
2022-12-25T06:42:54.453Z,955.87
2022-12-25T06:43:54.425Z,955.88
2022-12-25T06:44:54.447Z,955.84
2022-12-25T06:45:54.513Z,955.87
2022-12-25T06:46:54.421Z,955.88
2022-12-25T06:47:54.396Z,955.84
2022-12-25T06:48:54.390Z,955.87
2022-12-25T06:49:54.374Z,955.89
2022-12-25T06:50:54.431Z,955.87
2022-12-25T06:51:54.352Z,955.85
2022-12-25T06:52:54.345Z,955.87
2022-12-25T06:53:54.294Z,955.87
2022-12-25T06:54:54.334Z,955.91
2022-12-25T06:55:54.279Z,955.92
2022-12-25T06:56:54.361Z,955.89
2022-12-25T06:57:54.243Z,955.88
2022-12-25T06:58:54.245Z,955.85
2022-12-25T06:59:55.527Z,955.88
2022-12-25T07:00:54.241Z,955.92
2022-12-25T07:01:54.527Z,955.90
2022-12-25T07:02:54.350Z,955.91
2022-12-25T07:03:54.154Z,955.94
2022-12-25T07:04:54.166Z,955.96
2022-12-25T07:05:54.139Z,955.87
2022-12-25T07:06:54.158Z,955.87
2022-12-25T07:07:54.102Z,955.87
2022-12-25T07:08:54.097Z,955.87
2022-12-25T07:09:54.075Z,955.92
2022-12-25T07:10:54.102Z,955.94
2022-12-25T07:11:54.049Z,955.90
2022-12-25T07:12:54.069Z,955.92
2022-12-25T07:13:54.020Z,955.97
2022-12-25T07:14:54.034Z,955.94
2022-12-25T07:15:54.006Z,955.95
2022-12-25T07:16:54.077Z,955.94
2022-12-25T07:17:54.009Z,955.97
2022-12-25T07:18:53.976Z,955.96
2022-12-25T07:19:53.964Z,955.93
2022-12-25T07:20:53.934Z,955.96
2022-12-25T07:21:53.920Z,955.94
2022-12-25T07:22:53.938Z,956.01
2022-12-25T07:23:53.883Z,956.01
2022-12-25T07:24:53.888Z,956.02
2022-12-25T07:25:53.870Z,956.07
2022-12-25T07:26:53.865Z,956.12
2022-12-25T07:27:53.875Z,956.11
2022-12-25T07:28:53.839Z,956.11
2022-12-25T07:29:53.823Z,956.10
2022-12-25T07:30:53.817Z,956.12
2022-12-25T07:31:53.844Z,956.06
2022-12-25T07:32:53.804Z,956.08
2022-12-25T07:33:53.762Z,956.06
2022-12-25T07:34:53.778Z,956.06
2022-12-25T07:35:53.754Z,956.01
2022-12-25T07:36:53.737Z,956.11
2022-12-25T07:37:53.702Z,956.12
2022-12-25T07:38:53.714Z,956.10
2022-12-25T07:39:53.680Z,956.15
2022-12-25T07:40:53.686Z,956.11
2022-12-25T07:41:53.662Z,956.11
2022-12-25T07:42:53.666Z,956.11
2022-12-25T07:43:53.650Z,956.15
2022-12-25T07:44:53.663Z,956.16
2022-12-25T07:45:53.688Z,956.17
2022-12-25T07:46:53.597Z,956.12
2022-12-25T07:47:55.151Z,956.14
2022-12-25T07:48:53.573Z,956.08
2022-12-25T07:49:53.549Z,956.10
2022-12-25T07:50:53.577Z,956.07
2022-12-25T07:51:53.541Z,956.02
2022-12-25T07:52:53.670Z,956.05
2022-12-25T07:53:53.524Z,956.05
2022-12-25T07:54:53.507Z,955.99
2022-12-25T07:55:53.471Z,956.03
2022-12-25T07:56:53.472Z,956.03
2022-12-25T07:57:53.490Z,956.06
2022-12-25T07:58:53.440Z,956.00
2022-12-25T07:59:53.417Z,955.99
2022-12-25T08:00:53.530Z,955.99
2022-12-25T08:01:53.713Z,955.96
2022-12-25T08:02:53.634Z,955.92
2022-12-25T08:03:53.567Z,955.95
2022-12-25T08:04:53.365Z,955.91
2022-12-25T08:05:53.335Z,955.94
2022-12-25T08:06:53.362Z,955.90
2022-12-25T08:07:57.302Z,955.86
2022-12-25T08:08:53.346Z,955.88
2022-12-25T08:09:53.288Z,955.89
2022-12-25T08:10:53.278Z,955.89
2022-12-25T08:11:53.281Z,955.89
2022-12-25T08:12:53.287Z,955.90
2022-12-25T08:13:53.239Z,955.82
2022-12-25T08:14:53.294Z,955.84
2022-12-25T08:15:53.205Z,955.81
2022-12-25T08:16:53.250Z,955.80
2022-12-25T08:17:53.207Z,955.74
2022-12-25T08:18:53.184Z,955.74
2022-12-25T08:19:53.142Z,955.73
2022-12-25T08:20:53.148Z,955.70
2022-12-25T08:21:53.122Z,955.73
2022-12-25T08:22:53.132Z,955.65
2022-12-25T08:23:53.130Z,955.66
2022-12-25T08:24:53.096Z,955.65
2022-12-25T08:25:53.081Z,955.62
2022-12-25T08:26:53.069Z,955.66
2022-12-25T08:27:53.043Z,955.65
2022-12-25T08:28:53.155Z,955.70
2022-12-25T08:29:53.016Z,955.65
2022-12-25T08:30:53.050Z,955.71
2022-12-25T08:31:53.016Z,955.71
2022-12-25T08:32:52.985Z,955.71
2022-12-25T08:33:52.975Z,955.72
2022-12-25T08:34:52.965Z,955.70
2022-12-25T08:35:52.964Z,955.70
2022-12-25T08:36:52.932Z,955.70
2022-12-25T08:37:52.914Z,955.79
2022-12-25T08:38:57.029Z,955.68
2022-12-25T08:39:52.883Z,955.73
2022-12-25T08:40:52.894Z,955.77
2022-12-25T08:41:52.889Z,955.72
2022-12-25T08:42:52.854Z,955.72
2022-12-25T08:43:52.852Z,955.73
2022-12-25T08:44:52.828Z,955.78
2022-12-25T08:45:52.845Z,955.76
2022-12-25T08:46:52.799Z,955.77
2022-12-25T08:47:52.792Z,955.82
2022-12-25T08:48:52.794Z,955.79
2022-12-25T08:49:52.748Z,955.79
2022-12-25T08:50:52.750Z,955.83
2022-12-25T08:51:52.727Z,955.89
2022-12-25T08:52:52.741Z,955.85
2022-12-25T08:53:52.736Z,955.88
2022-12-25T08:54:52.688Z,955.86
2022-12-25T08:55:52.679Z,955.82
2022-12-25T08:56:55.109Z,955.80
2022-12-25T08:57:52.665Z,955.78
2022-12-25T08:58:52.659Z,955.79
2022-12-25T08:59:52.670Z,955.74
2022-12-25T09:00:52.767Z,955.74
2022-12-25T09:01:52.728Z,955.72
2022-12-25T09:02:52.801Z,955.70
2022-12-25T09:03:52.657Z,955.73
2022-12-25T09:04:52.574Z,955.73
2022-12-25T09:05:52.532Z,955.76
2022-12-25T09:06:52.536Z,955.74
2022-12-25T09:07:52.518Z,955.73
2022-12-25T09:08:52.546Z,955.73
2022-12-25T09:09:52.501Z,955.68
2022-12-25T09:10:52.490Z,955.67
2022-12-25T09:11:52.490Z,955.70
2022-12-25T09:12:52.457Z,955.72
2022-12-25T09:13:52.433Z,955.73
2022-12-25T09:14:52.421Z,955.74
2022-12-25T09:15:52.456Z,955.74
2022-12-25T09:16:52.399Z,955.73
2022-12-25T09:17:52.404Z,955.73
2022-12-25T09:18:52.381Z,955.77
2022-12-25T09:19:52.413Z,955.74
2022-12-25T09:20:52.348Z,955.69
2022-12-25T09:21:52.353Z,955.64
2022-12-25T09:22:52.315Z,955.64
2022-12-25T09:23:52.291Z,955.64
2022-12-25T09:24:52.291Z,955.57
2022-12-25T09:25:52.331Z,955.56
2022-12-25T09:26:52.289Z,955.54
2022-12-25T09:27:52.239Z,955.59
2022-12-25T09:28:52.820Z,955.56
2022-12-25T09:29:52.246Z,955.58
2022-12-25T09:30:52.257Z,955.55
2022-12-25T09:31:52.193Z,955.55
2022-12-25T09:32:52.207Z,955.59
2022-12-25T09:33:52.195Z,955.53
2022-12-25T09:34:52.149Z,955.54
2022-12-25T09:35:52.167Z,955.52
2022-12-25T09:36:52.159Z,955.53
2022-12-25T09:37:52.107Z,955.55
2022-12-25T09:38:52.086Z,955.53
2022-12-25T09:39:52.148Z,955.50
2022-12-25T09:40:52.088Z,955.49
2022-12-25T09:41:52.073Z,955.49
2022-12-25T09:42:52.029Z,955.47
2022-12-25T09:43:52.064Z,955.50
2022-12-25T09:44:52.019Z,955.48
2022-12-25T09:45:52.070Z,955.43
2022-12-25T09:46:52.107Z,955.40
2022-12-25T09:47:52.016Z,955.44
2022-12-25T09:48:52.003Z,955.43
2022-12-25T09:49:51.945Z,955.39
2022-12-25T09:50:51.953Z,955.31
2022-12-25T09:51:51.945Z,955.33
2022-12-25T09:52:51.905Z,955.27
2022-12-25T09:53:51.915Z,955.26
2022-12-25T09:54:51.874Z,955.30
2022-12-25T09:55:51.885Z,955.28
2022-12-25T09:56:51.853Z,955.25
2022-12-25T09:57:51.851Z,955.31
2022-12-25T09:58:51.852Z,955.20
2022-12-25T09:59:51.825Z,955.19
2022-12-25T10:00:51.801Z,955.24
2022-12-25T10:01:51.921Z,955.22
2022-12-25T10:02:51.953Z,955.24
2022-12-25T10:03:51.898Z,955.24
2022-12-25T10:04:51.770Z,955.21
2022-12-25T10:05:51.747Z,955.24
2022-12-25T10:06:51.704Z,955.22
2022-12-25T10:07:51.724Z,955.16
2022-12-25T10:08:51.734Z,955.13
2022-12-25T10:09:51.680Z,955.07
2022-12-25T10:10:51.685Z,955.03
2022-12-25T10:11:51.665Z,955.03
2022-12-25T10:12:51.671Z,954.99
2022-12-25T10:13:51.637Z,955.06
2022-12-25T10:14:51.631Z,955.06
2022-12-25T10:15:51.667Z,955.02
2022-12-25T10:16:51.574Z,955.01
2022-12-25T10:17:51.589Z,954.96
2022-12-25T10:18:51.550Z,954.98
2022-12-25T10:19:51.572Z,955.01
2022-12-25T10:20:51.535Z,954.98
2022-12-25T10:21:51.522Z,954.97
2022-12-25T10:22:51.525Z,954.94
2022-12-25T10:23:51.499Z,954.91
2022-12-25T10:24:51.499Z,954.90
2022-12-25T10:25:51.465Z,954.90
2022-12-25T10:26:51.613Z,954.90
2022-12-25T10:27:51.436Z,954.90
2022-12-25T10:28:51.419Z,954.89
2022-12-25T10:29:51.454Z,954.92
2022-12-25T10:30:51.404Z,954.88
2022-12-25T10:31:51.396Z,954.89
2022-12-25T10:32:51.363Z,954.85
2022-12-25T10:33:51.363Z,954.85
2022-12-25T10:34:51.363Z,954.83
2022-12-25T10:35:51.371Z,954.81
2022-12-25T10:36:51.310Z,954.83
2022-12-25T10:37:51.314Z,954.82
2022-12-25T10:38:51.300Z,954.86
2022-12-25T10:39:51.284Z,954.85
2022-12-25T10:40:51.288Z,954.89
2022-12-25T10:41:51.257Z,954.90
2022-12-25T10:42:51.254Z,954.88
2022-12-25T10:43:51.231Z,954.84
2022-12-25T10:44:51.232Z,954.80
2022-12-25T10:45:51.222Z,954.75
2022-12-25T10:46:51.253Z,954.78
2022-12-25T10:47:58.554Z,954.75
2022-12-25T10:48:51.162Z,954.77
2022-12-25T10:49:51.149Z,954.76
2022-12-25T10:50:51.150Z,954.79
2022-12-25T10:51:51.119Z,954.84
2022-12-25T10:52:51.131Z,954.82
2022-12-25T10:53:51.113Z,954.83
2022-12-25T10:54:51.074Z,954.91
2022-12-25T10:55:51.063Z,954.87
2022-12-25T10:56:51.049Z,954.83
2022-12-25T10:57:51.069Z,954.83
2022-12-25T10:58:51.030Z,954.83
2022-12-25T10:59:51.022Z,954.79
2022-12-25T11:00:50.984Z,954.78
2022-12-25T11:01:55.055Z,954.79
2022-12-25T11:02:51.219Z,954.70
2022-12-25T11:03:51.114Z,954.65
2022-12-25T11:04:50.957Z,954.64
2022-12-25T11:05:50.944Z,954.58
2022-12-25T11:06:50.915Z,954.55
2022-12-25T11:07:50.984Z,954.54
2022-12-25T11:08:50.946Z,954.50
2022-12-25T11:09:50.910Z,954.45
2022-12-25T11:10:50.857Z,954.48
2022-12-25T11:11:50.850Z,954.43
2022-12-25T11:12:50.885Z,954.42
2022-12-25T11:13:50.838Z,954.35
2022-12-25T11:14:50.795Z,954.34
2022-12-25T11:15:50.853Z,954.32
2022-12-25T11:16:50.772Z,954.28
2022-12-25T11:17:50.790Z,954.25
2022-12-25T11:18:50.754Z,954.29
2022-12-25T11:19:50.768Z,954.21
2022-12-25T11:20:50.721Z,954.19
2022-12-25T11:21:50.715Z,954.22
2022-12-25T11:22:50.719Z,954.17
2022-12-25T11:23:50.699Z,954.16
2022-12-25T11:24:50.666Z,954.15
2022-12-25T11:25:50.663Z,954.11
2022-12-25T11:26:50.664Z,954.11
2022-12-25T11:27:53.568Z,954.09
2022-12-25T11:28:50.612Z,954.07
2022-12-25T11:29:50.624Z,954.08
2022-12-25T11:30:50.595Z,954.05
2022-12-25T11:31:50.739Z,954.06
2022-12-25T11:32:50.596Z,954.04
2022-12-25T11:33:50.605Z,954.03
2022-12-25T11:34:50.565Z,954.01
2022-12-25T11:35:50.531Z,953.97
2022-12-25T11:36:50.501Z,953.94
2022-12-25T11:37:50.510Z,953.91
2022-12-25T11:38:50.484Z,953.85
2022-12-25T11:39:50.477Z,953.82
2022-12-25T11:40:50.497Z,953.85
2022-12-25T11:41:50.482Z,953.79
2022-12-25T11:42:50.420Z,953.79
2022-12-25T11:43:50.422Z,953.77
2022-12-25T11:44:50.428Z,953.75
2022-12-25T11:45:50.416Z,953.70
2022-12-25T11:46:50.478Z,953.65
2022-12-25T11:47:50.391Z,953.72
2022-12-25T11:48:50.352Z,953.70
2022-12-25T11:49:52.147Z,953.74
2022-12-25T11:50:50.322Z,953.73
2022-12-25T11:51:50.329Z,953.72
2022-12-25T11:52:50.296Z,953.69
2022-12-25T11:53:50.316Z,953.67
2022-12-25T11:54:50.275Z,953.68
2022-12-25T11:55:50.265Z,953.67
2022-12-25T11:56:50.269Z,953.69
2022-12-25T11:57:50.243Z,953.71
2022-12-25T11:58:50.281Z,953.68
2022-12-25T11:59:50.215Z,953.69
2022-12-25T12:00:50.181Z,953.65
2022-12-25T12:01:50.311Z,953.63
2022-12-25T12:02:50.345Z,953.61
2022-12-25T12:03:50.264Z,953.59
2022-12-25T12:04:50.153Z,953.56
2022-12-25T12:05:50.145Z,953.58
2022-12-25T12:06:50.126Z,953.59
2022-12-25T12:07:50.131Z,953.58
2022-12-25T12:08:50.096Z,953.67
2022-12-25T12:09:50.098Z,953.62
2022-12-25T12:10:50.055Z,953.60
2022-12-25T12:11:50.063Z,953.60
2022-12-25T12:12:50.036Z,953.62
2022-12-25T12:13:50.013Z,953.60
2022-12-25T12:14:50.041Z,953.57
2022-12-25T12:15:50.000Z,953.56
2022-12-25T12:16:50.052Z,953.53
2022-12-25T12:17:49.972Z,953.55
2022-12-25T12:18:50.768Z,953.55
2022-12-25T12:19:49.962Z,953.57
2022-12-25T12:20:49.946Z,953.59
2022-12-25T12:21:49.960Z,953.57
2022-12-25T12:22:49.886Z,953.56
2022-12-25T12:23:49.885Z,953.55
2022-12-25T12:24:49.887Z,953.52
2022-12-25T12:25:49.871Z,953.54
2022-12-25T12:26:49.859Z,953.54
2022-12-25T12:27:49.833Z,953.54
2022-12-25T12:28:49.810Z,953.51
2022-12-25T12:29:49.815Z,953.47